createdAt,value
2018-05-06T18:10:36.224Z,1.00
2018-05-06T18:13:07.805Z,0.80
2018-05-06T18:15:40.266Z,1.20
2018-05-06T18:18:11.846Z,0.85
2018-05-06T18:20:43.430Z,0.70
2018-05-06T18:23:15.016Z,1.10
2018-05-06T18:25:46.685Z,0.70
2018-05-06T18:28:18.270Z,0.98
2018-05-06T18:30:49.900Z,1.00
2018-05-06T18:33:21.486Z,1.02
2018-05-06T18:35:53.065Z,1.00
2018-05-06T18:38:24.770Z,1.17
2018-05-06T18:40:56.350Z,1.10
2018-05-06T18:43:27.934Z,1.02
2018-05-06T18:46:00.020Z,1.00
2018-05-06T18:48:31.592Z,1.00
2018-05-06T18:51:03.184Z,0.90
2018-05-06T18:53:34.762Z,0.90
2018-05-06T18:56:06.767Z,1.05
2018-05-06T18:58:38.326Z,1.00
2018-05-06T19:01:09.918Z,1.10
2018-05-06T19:03:41.484Z,0.70
2018-05-06T19:06:13.179Z,0.90
2018-05-06T19:08:44.847Z,0.80
2018-05-06T19:11:16.438Z,0.75
2018-05-06T19:13:48.014Z,0.82
2018-05-06T19:16:19.602Z,0.70
2018-05-06T19:18:51.182Z,0.60
2018-05-06T19:21:22.802Z,0.98
2018-05-06T19:23:54.463Z,0.90
2018-05-06T19:26:26.058Z,0.70
2018-05-06T19:28:57.665Z,0.62
2018-05-06T19:31:29.328Z,1.00
2018-05-06T19:34:00.991Z,0.65
2018-05-06T19:36:32.634Z,0.62
2018-05-06T19:39:04.290Z,0.77
2018-05-06T19:41:35.947Z,0.73
2018-05-06T19:44:07.530Z,0.60
2018-05-06T19:46:39.125Z,0.45
2018-05-06T19:49:10.699Z,2.25
2018-05-06T19:51:42.281Z,0.70
2018-05-06T19:54:13.913Z,0.62
2018-05-06T19:56:45.502Z,0.80
2018-05-06T19:59:17.132Z,0.65
2018-05-06T20:01:48.798Z,0.68
2018-05-06T20:04:20.366Z,0.55
2018-05-06T20:06:51.994Z,0.80
2018-05-06T20:09:23.562Z,0.60
2018-05-06T20:11:55.204Z,0.80
2018-05-06T20:14:26.786Z,0.60
2018-05-06T20:16:58.372Z,1.10
2018-05-06T20:19:30.176Z,0.70
2018-05-06T20:22:01.822Z,1.20
2018-05-06T20:24:33.394Z,2.00
2018-05-06T20:27:05.031Z,2.17
2018-05-06T20:29:36.662Z,2.70
2018-05-06T20:32:08.250Z,2.60
2018-05-06T20:34:39.894Z,2.20
2018-05-06T20:37:11.487Z,2.47
2018-05-06T20:39:43.102Z,2.58
2018-05-06T20:42:14.710Z,2.72
2018-05-06T20:44:46.397Z,2.58
2018-05-06T20:47:18.068Z,2.12
2018-05-06T20:49:49.642Z,2.42
2018-05-06T20:52:21.280Z,2.80
2018-05-06T20:54:52.937Z,2.95
2018-05-06T20:57:24.520Z,2.40
2018-05-06T20:59:56.094Z,2.92
2018-05-06T21:02:27.678Z,2.30
2018-05-06T21:04:59.255Z,2.50
2018-05-06T21:07:30.906Z,2.40
2018-05-06T21:10:02.502Z,2.87
2018-05-06T21:12:34.114Z,2.20
2018-05-06T21:15:05.690Z,3.20
2018-05-06T21:17:37.289Z,2.40
2018-05-06T21:20:08.859Z,2.05
2018-05-06T21:22:40.531Z,2.45
2018-05-06T21:25:12.111Z,3.20
2018-05-06T21:27:44.294Z,2.28
2018-05-06T21:30:15.805Z,2.08
2018-05-06T21:32:47.454Z,2.20
2018-05-06T21:35:19.026Z,2.30
2018-05-06T21:37:50.660Z,2.30
2018-05-06T21:40:22.235Z,2.00
2018-05-06T21:42:53.822Z,2.00
2018-05-06T21:45:25.492Z,2.00
2018-05-06T21:47:57.034Z,1.60
2018-05-06T21:50:28.610Z,2.10
2018-05-06T21:53:00.302Z,2.10
2018-05-06T21:55:31.948Z,2.03
2018-05-06T21:58:03.543Z,2.30
2018-05-06T22:00:35.153Z,2.58
2018-05-06T22:03:06.811Z,1.20
2018-05-06T22:05:38.467Z,2.53
2018-05-06T22:08:10.126Z,2.10
2018-05-06T22:10:41.777Z,2.95
2018-05-06T22:13:14.970Z,2.62
2018-05-06T22:15:46.542Z,2.12
2018-05-06T22:18:18.167Z,2.75
2018-05-06T22:20:49.834Z,4.00
2018-05-06T22:23:21.497Z,4.40
2018-05-06T22:25:53.046Z,5.43
2018-05-06T22:28:24.646Z,5.82
2018-05-06T22:30:56.230Z,5.43
2018-05-06T22:33:27.906Z,4.15
2018-05-06T22:35:59.486Z,4.87
2018-05-06T22:38:31.085Z,4.25
2018-05-06T22:41:02.658Z,4.82
2018-05-06T22:43:34.327Z,5.12
2018-05-06T22:46:05.943Z,5.10
2018-05-06T22:48:37.686Z,5.22
2018-05-06T22:51:09.270Z,5.62
2018-05-06T22:53:40.869Z,6.20
2018-05-06T22:56:12.461Z,4.50
2018-05-06T22:58:44.097Z,5.07
2018-05-06T23:01:15.706Z,4.40
2018-05-06T23:03:47.300Z,4.70
2018-05-06T23:06:18.883Z,4.62
2018-05-06T23:08:50.473Z,6.30
2018-05-06T23:11:22.130Z,5.80
2018-05-06T23:13:59.501Z,6.20
2018-05-06T23:16:31.174Z,6.00
2018-05-06T23:19:02.831Z,5.07
2018-05-06T23:21:35.005Z,6.35
2018-05-06T23:24:06.597Z,5.30
2018-05-06T23:26:38.312Z,5.32
2018-05-06T23:29:09.950Z,5.50
2018-05-06T23:31:41.485Z,6.47
2018-05-06T23:34:13.073Z,5.62
2018-05-06T23:36:44.718Z,7.25
2018-05-06T23:39:16.317Z,6.72
2018-05-06T23:41:47.890Z,5.78
2018-05-06T23:44:19.503Z,5.75
2018-05-06T23:46:51.142Z,4.85
2018-05-06T23:49:22.731Z,5.00
2018-05-06T23:51:54.315Z,5.35
2018-05-06T23:54:25.906Z,5.90
2018-05-06T23:56:57.482Z,5.57
2018-05-06T23:59:29.089Z,5.30
